createdAt,value
2022-11-03T00:00:34.495Z,100968.03
2022-11-03T00:03:01.010Z,100962.81
2022-11-03T00:05:46.182Z,100966.31
2022-11-03T00:10:43.909Z,100964.53
2022-11-03T00:13:10.332Z,100964.53
2022-11-03T00:15:36.726Z,100959.28
2022-11-03T00:18:03.192Z,100962.81
2022-11-03T00:20:29.629Z,100960.16
2022-11-03T00:22:56.071Z,100950.50
2022-11-03T00:25:22.538Z,100953.13
2022-11-03T00:27:54.539Z,100951.41
2022-11-03T00:30:20.997Z,100949.66
2022-11-03T00:32:47.458Z,100947.06
2022-11-03T00:35:13.960Z,100947.00
2022-11-03T00:37:40.347Z,100934.81
2022-11-03T00:40:07.431Z,100928.69
2022-11-03T00:42:35.083Z,100920.78
2022-11-03T00:45:01.503Z,100928.69
2022-11-03T00:47:27.954Z,100921.66
2022-11-03T00:49:54.410Z,100926.88
2022-11-03T00:52:20.835Z,100926.06
2022-11-03T00:54:51.333Z,100919.09
2022-11-03T00:57:21.570Z,100920.00
2022-11-03T00:59:48.115Z,100920.84
2022-11-03T01:02:14.655Z,100922.59
2022-11-03T01:04:59.684Z,100918.22
2022-11-03T01:07:26.048Z,100917.38
2022-11-03T01:09:52.477Z,100918.22
2022-11-03T01:12:19.353Z,100911.25
2022-11-03T01:14:51.505Z,100906.88
2022-11-03T01:17:26.832Z,100901.66
2022-11-03T01:19:54.114Z,100910.44
2022-11-03T01:22:22.187Z,100907.00
2022-11-03T01:24:48.758Z,100907.03
2022-11-03T01:27:18.042Z,100906.19
2022-11-03T01:29:44.771Z,100898.41
2022-11-03T01:32:12.021Z,100898.41
2022-11-03T01:34:39.348Z,100894.97
2022-11-03T01:37:05.890Z,100900.22
2022-11-03T01:39:32.542Z,100893.25
2022-11-03T01:41:58.988Z,100881.06
2022-11-03T01:44:50.098Z,100877.63
2022-11-03T01:47:27.991Z,100876.78
2022-11-03T01:50:03.419Z,100867.19
2022-11-03T01:52:48.443Z,100870.69
2022-11-03T01:55:22.449Z,100866.38
2022-11-03T01:58:07.280Z,100859.41
2022-11-03T02:00:35.001Z,100852.47
2022-11-03T02:03:02.196Z,100851.56
2022-11-03T02:05:30.023Z,100839.41
2022-11-03T02:08:03.761Z,100845.50
2022-11-03T02:10:30.234Z,100835.88
2022-11-03T02:12:57.315Z,100828.88
2022-11-03T02:15:24.363Z,100828.81
2022-11-03T02:17:54.772Z,100829.72
2022-11-03T02:20:24.069Z,100828.84
2022-11-03T02:23:12.465Z,100822.75
2022-11-03T02:25:53.228Z,100824.50
2022-11-03T02:28:22.932Z,100818.44
2022-11-03T02:31:16.792Z,100811.44
2022-11-03T02:34:03.558Z,100809.69
2022-11-03T02:36:42.955Z,100809.63
2022-11-03T02:39:16.246Z,100799.16
2022-11-03T02:41:44.057Z,100801.75
2022-11-03T02:44:19.160Z,100793.84
2022-11-03T02:46:50.400Z,100779.03
2022-11-03T02:49:16.795Z,100773.78
2022-11-03T02:51:43.201Z,100772.03
2022-11-03T02:54:27.386Z,100769.41
2022-11-03T02:56:59.694Z,100762.41
2022-11-03T02:59:31.423Z,100761.50
2022-11-03T03:02:11.677Z,100759.69
2022-11-03T03:04:46.910Z,100755.31
2022-11-03T03:07:18.716Z,100755.28
2022-11-03T03:09:53.739Z,100755.28
2022-11-03T03:12:22.101Z,100743.91
2022-11-03T03:14:51.092Z,100740.44
2022-11-03T03:17:25.871Z,100742.19
2022-11-03T03:19:55.237Z,100735.19
2022-11-03T03:22:36.316Z,100737.81
2022-11-03T03:25:15.246Z,100723.84
2022-11-03T03:27:47.607Z,100730.81
2022-11-03T03:30:14.870Z,100720.38
2022-11-03T03:32:48.930Z,100724.75
2022-11-03T03:35:20.370Z,100713.44
2022-11-03T03:37:53.623Z,100720.47
2022-11-03T03:40:28.603Z,100710.88
2022-11-03T03:42:56.748Z,100715.16
2022-11-03T03:45:25.921Z,100716.94
2022-11-03T03:47:57.340Z,100715.16
2022-11-03T03:50:27.086Z,100717.75
2022-11-03T03:53:09.385Z,100706.38
2022-11-03T03:55:45.252Z,100702.00
2022-11-03T03:58:13.723Z,100697.66
2022-11-03T04:00:41.300Z,100702.91
2022-11-03T04:03:17.746Z,100693.31
2022-11-03T04:05:44.769Z,100687.22
2022-11-03T04:08:15.998Z,100695.94
2022-11-03T04:11:05.831Z,100688.97
2022-11-03T04:13:51.579Z,100681.13
2022-11-03T04:16:36.322Z,100672.38
2022-11-03T04:19:21.232Z,100681.09
2022-11-03T04:22:06.292Z,100675.00
2022-11-03T04:24:32.684Z,100671.44
2022-11-03T04:27:05.555Z,100674.91
2022-11-03T04:29:31.949Z,100664.44
2022-11-03T04:31:58.459Z,100673.06
2022-11-03T04:34:24.951Z,100666.94
2022-11-03T04:36:51.346Z,100662.53
2022-11-03T04:39:20.093Z,100664.28
2022-11-03T04:41:46.824Z,100673.00
2022-11-03T04:44:16.788Z,100655.56
2022-11-03T04:46:45.443Z,100654.69
2022-11-03T04:49:22.682Z,100661.75
2022-11-03T04:51:49.888Z,100646.97
2022-11-03T04:54:19.646Z,100648.63
2022-11-03T04:56:46.047Z,100647.75
2022-11-03T04:59:14.219Z,100644.25
2022-11-03T05:01:41.205Z,100645.06
2022-11-03T05:04:18.360Z,100638.94
2022-11-03T05:06:51.338Z,100636.31
2022-11-03T05:09:23.046Z,100631.91
2022-11-03T05:11:49.621Z,100624.88
2022-11-03T05:14:20.474Z,100618.72
2022-11-03T05:16:48.512Z,100616.97
2022-11-03T05:19:19.792Z,100616.06
2022-11-03T05:21:50.047Z,100612.53
2022-11-03T05:24:21.051Z,100609.97
2022-11-03T05:26:48.984Z,100605.56
2022-11-03T05:29:25.562Z,100595.97
2022-11-03T05:31:53.911Z,100589.88
2022-11-03T05:34:32.545Z,100585.47
2022-11-03T05:37:26.786Z,100586.38
2022-11-03T05:39:59.477Z,100582.91
2022-11-03T05:42:34.198Z,100581.16
2022-11-03T05:45:03.232Z,100573.25
2022-11-03T05:47:37.728Z,100572.34
2022-11-03T05:50:28.516Z,100580.97
2022-11-03T05:52:59.822Z,100573.97
2022-11-03T05:55:29.680Z,100573.13
2022-11-03T05:58:01.533Z,100568.72
2022-11-03T06:00:31.765Z,100567.00
2022-11-03T06:02:59.136Z,100559.19
2022-11-03T06:05:26.950Z,100558.28
2022-11-03T06:07:55.956Z,100554.81
2022-11-03T06:10:41.341Z,100557.47
2022-11-03T06:13:16.256Z,100545.28
2022-11-03T06:15:45.887Z,100547.06
2022-11-03T06:18:19.656Z,100536.56
2022-11-03T06:20:52.125Z,100547.81
2022-11-03T06:23:20.678Z,100548.66
2022-11-03T06:25:48.846Z,100541.66
2022-11-03T06:28:20.749Z,100531.19
2022-11-03T06:30:47.624Z,100532.91
2022-11-03T06:33:27.845Z,100533.75
2022-11-03T06:35:59.061Z,100543.34
2022-11-03T06:38:29.627Z,100523.28
2022-11-03T06:40:57.303Z,100524.16
2022-11-03T06:43:37.932Z,100530.16
2022-11-03T06:46:14.770Z,100528.44
2022-11-03T06:48:41.231Z,100525.91
2022-11-03T06:51:25.562Z,100517.13
2022-11-03T06:53:54.126Z,100510.19
2022-11-03T06:56:23.105Z,100508.38
2022-11-03T06:58:52.505Z,100497.94
2022-11-03T07:01:25.881Z,100490.06
2022-11-03T07:03:59.085Z,100493.59
2022-11-03T07:06:30.066Z,100483.97
2022-11-03T07:08:59.759Z,100481.31
2022-11-03T07:11:28.561Z,100480.38
2022-11-03T07:14:17.872Z,100483.84
2022-11-03T07:16:48.682Z,100479.47
2022-11-03T07:19:38.122Z,100471.53
2022-11-03T07:22:19.806Z,100474.06
2022-11-03T07:24:48.613Z,100469.59
2022-11-03T07:27:23.769Z,100487.88
2022-11-03T07:29:52.732Z,100479.94
2022-11-03T07:32:21.214Z,100472.94
2022-11-03T07:34:49.029Z,100466.72
2022-11-03T07:37:23.798Z,100460.50
2022-11-03T07:39:51.227Z,100467.34
2022-11-03T07:42:19.894Z,100447.19
2022-11-03T07:44:47.067Z,100448.78
2022-11-03T07:47:18.873Z,100447.84
2022-11-03T07:49:45.647Z,100446.84
2022-11-03T07:52:16.110Z,100442.34
2022-11-03T07:54:42.867Z,100439.66
2022-11-03T07:57:26.224Z,100441.31
2022-11-03T07:59:56.760Z,100433.44
2022-11-03T08:02:52.357Z,100427.16
2022-11-03T08:07:46.153Z,100426.09
2022-11-03T08:10:13.719Z,100431.31
2022-11-03T08:12:40.175Z,100417.34
2022-11-03T08:15:07.279Z,100420.72
2022-11-03T08:17:33.699Z,100418.97
2022-11-03T08:20:00.248Z,100418.03
2022-11-03T08:22:26.679Z,100407.56
2022-11-03T08:24:53.315Z,100405.88
2022-11-03T08:27:19.932Z,100403.25
2022-11-03T08:29:46.367Z,100407.59
2022-11-03T08:32:12.803Z,100402.28
2022-11-03T08:34:39.273Z,100389.75
2022-11-03T08:37:05.759Z,100390.69
2022-11-03T08:39:32.220Z,100387.16
2022-11-03T08:41:58.654Z,100390.50
2022-11-03T08:44:25.075Z,100384.31
2022-11-03T08:46:51.479Z,100378.97
2022-11-03T08:49:17.929Z,100378.00
2022-11-03T08:51:45.049Z,100366.56
2022-11-03T08:54:11.738Z,100374.41
2022-11-03T08:56:38.163Z,100362.88
2022-11-03T08:59:04.577Z,100360.13
2022-11-03T09:01:31.088Z,100358.19
2022-11-03T09:03:57.656Z,100338.03
2022-11-03T09:06:24.201Z,100337.81
2022-11-03T09:11:37.048Z,100338.28
2022-11-03T09:14:03.929Z,100341.59
2022-11-03T09:16:30.360Z,100331.88
2022-11-03T09:18:56.776Z,100332.47
2022-11-03T09:21:23.365Z,100328.06
2022-11-03T09:23:49.994Z,100314.81
2022-11-03T09:26:16.541Z,100310.38
2022-11-03T09:28:43.026Z,100294.53
2022-11-03T09:31:09.500Z,100278.53
2022-11-03T09:33:35.935Z,100281.00
2022-11-03T09:36:02.704Z,100273.97
2022-11-03T09:38:29.297Z,100267.81
2022-11-03T09:40:55.858Z,100262.47
2022-11-03T09:43:22.354Z,100258.00
2022-11-03T09:45:48.965Z,100247.38
2022-11-03T09:48:15.643Z,100247.25
2022-11-03T09:50:42.919Z,100235.72
2022-11-03T09:53:11.608Z,100240.06
2022-11-03T09:55:39.875Z,100227.78
2022-11-03T09:58:17.884Z,100214.63
2022-11-03T10:00:45.499Z,100206.53
2022-11-03T10:03:13.987Z,100206.47
2022-11-03T10:05:42.176Z,100201.06
2022-11-03T10:08:22.706Z,100201.03
2022-11-03T10:10:50.778Z,100193.13
2022-11-03T10:13:42.322Z,100188.66
2022-11-03T10:16:11.691Z,100171.78
2022-11-03T10:18:38.270Z,100171.75
2022-11-03T10:21:17.764Z,100163.72
2022-11-03T10:23:44.894Z,100156.63
2022-11-03T10:26:13.785Z,100161.66
2022-11-03T10:28:40.449Z,100169.25
2022-11-03T10:31:19.514Z,100174.44
2022-11-03T10:33:54.673Z,100163.84
2022-11-03T10:36:32.145Z,100170.81
2022-11-03T10:38:59.450Z,100161.69
2022-11-03T10:41:28.595Z,100153.75
2022-11-03T10:44:19.919Z,100128.97
2022-11-03T10:47:34.623Z,100112.16
2022-11-03T10:50:18.903Z,100114.50
2022-11-03T10:52:45.351Z,100112.72
2022-11-03T10:55:11.775Z,100108.28
2022-11-03T10:57:38.448Z,100109.13
2022-11-03T11:00:05.959Z,100093.19
2022-11-03T11:02:33.125Z,100087.94
2022-11-03T11:05:02.197Z,100079.97
2022-11-03T11:07:38.858Z,100078.94
2022-11-03T11:10:12.072Z,100064.84
2022-11-03T11:12:39.144Z,100061.38
2022-11-03T11:15:36.693Z,100064.00
2022-11-03T11:18:03.217Z,100071.03
2022-11-03T11:20:33.889Z,100068.34
2022-11-03T11:23:28.621Z,100065.63
2022-11-03T11:26:10.455Z,100064.78
2022-11-03T11:28:58.359Z,100069.19
2022-11-03T11:31:32.516Z,100057.94
2022-11-03T11:34:18.134Z,100061.63
2022-11-03T11:36:47.376Z,100065.19
2022-11-03T11:39:22.858Z,100071.22
2022-11-03T11:42:13.293Z,100077.16
2022-11-03T11:44:39.849Z,100067.28
2022-11-03T11:47:32.762Z,100052.22
2022-11-03T11:50:05.560Z,100047.81
2022-11-03T11:53:07.644Z,100023.34
2022-11-03T11:55:40.486Z,100008.66
2022-11-03T11:58:17.308Z,99981.59
2022-11-03T12:01:11.747Z,99993.13
2022-11-03T12:03:43.718Z,99979.19
2022-11-03T12:06:13.231Z,99973.16
2022-11-03T12:08:40.184Z,99964.41
2022-11-03T12:11:08.154Z,99954.81
2022-11-03T12:13:47.357Z,99945.25
2022-11-03T12:16:30.102Z,99931.44
2022-11-03T12:18:56.973Z,99928.81
2022-11-03T12:21:53.873Z,99930.53
2022-11-03T12:24:55.915Z,99925.84
2022-11-03T12:27:25.476Z,99911.53
2022-11-03T12:29:53.145Z,99913.97
2022-11-03T12:32:33.112Z,99901.53
2022-11-03T12:35:05.389Z,99887.38
2022-11-03T12:37:31.968Z,99879.41
2022-11-03T12:39:58.392Z,99874.16
2022-11-03T12:42:25.419Z,99878.75
2022-11-03T12:44:52.988Z,99863.25
2022-11-03T12:47:20.199Z,99871.28
2022-11-03T12:49:46.766Z,99858.22
2022-11-03T12:52:13.192Z,99861.63
2022-11-03T12:54:39.755Z,99853.72
2022-11-03T12:57:06.240Z,99854.66
2022-11-03T12:59:32.682Z,99851.25
2022-11-03T13:01:59.276Z,99843.41
2022-11-03T13:04:25.864Z,99835.66
2022-11-03T13:06:52.303Z,99817.47
2022-11-03T13:09:18.718Z,99814.03
2022-11-03T13:12:03.903Z,99807.06
2022-11-03T13:14:30.430Z,99799.94
2022-11-03T13:16:56.821Z,99802.38
2022-11-03T13:19:23.314Z,99787.44
2022-11-03T13:21:49.763Z,99790.06
2022-11-03T13:24:16.182Z,99772.44
2022-11-03T13:26:42.601Z,99767.16
2022-11-03T13:29:09.089Z,99758.31
2022-11-03T13:31:35.743Z,99754.72
2022-11-03T13:34:02.349Z,99745.91
2022-11-03T13:36:28.824Z,99740.56
2022-11-03T13:38:55.260Z,99729.19
2022-11-03T13:41:21.738Z,99723.06
2022-11-03T13:43:48.202Z,99718.66
2022-11-03T13:46:14.608Z,99712.56
2022-11-03T13:51:27.455Z,99699.75
2022-11-03T13:59:27.903Z,99679.94
2022-11-03T14:04:41.747Z,99693.31
2022-11-03T14:07:08.656Z,99696.88
2022-11-03T14:12:20.250Z,99675.88
2022-11-03T14:14:46.658Z,99663.75
2022-11-03T14:17:19.279Z,99666.53
2022-11-03T14:19:51.824Z,99654.31
2022-11-03T14:22:23.417Z,99654.44
2022-11-03T14:24:50.903Z,99653.59
2022-11-03T14:27:18.974Z,99644.09
2022-11-03T14:29:49.550Z,99645.09
2022-11-03T14:32:17.533Z,99638.97
2022-11-03T14:34:44.440Z,99638.25
2022-11-03T14:37:11.703Z,99634.84
2022-11-03T14:39:38.799Z,99636.84
2022-11-03T14:42:07.899Z,99630.97
2022-11-03T14:44:36.619Z,99634.66
2022-11-03T14:47:05.534Z,99645.53
2022-11-03T14:49:34.162Z,99646.66
2022-11-03T14:52:02.064Z,99646.91
2022-11-03T14:54:30.464Z,99643.53
2022-11-03T14:56:57.557Z,99641.94
2022-11-03T14:59:24.095Z,99639.38
2022-11-03T15:01:51.886Z,99629.81
2022-11-03T15:04:18.570Z,99639.53
2022-11-03T15:06:45.447Z,99641.44
2022-11-03T15:09:14.757Z,99644.22
2022-11-03T15:11:42.685Z,99629.72
2022-11-03T15:14:09.935Z,99626.84
2022-11-03T15:16:36.869Z,99636.84
2022-11-03T15:19:06.795Z,99624.94
2022-11-03T15:21:33.654Z,99616.63
2022-11-03T15:26:46.699Z,99613.81
2022-11-03T15:29:13.181Z,99603.44
2022-11-03T15:31:44.507Z,99601.81
2022-11-03T15:34:13.844Z,99593.34
2022-11-03T15:36:40.254Z,99596.94
2022-11-03T15:39:06.668Z,99577.72
2022-11-03T15:41:33.129Z,99571.78
2022-11-03T15:43:59.625Z,99564.88
2022-11-03T15:46:26.182Z,99558.66
2022-11-03T15:48:54.451Z,99543.69
2022-11-03T15:51:21.064Z,99535.81
2022-11-03T15:53:47.559Z,99553.53
2022-11-03T15:56:13.978Z,99542.31
2022-11-03T15:58:40.416Z,99530.13
2022-11-03T16:01:07.025Z,99526.66
2022-11-03T16:03:33.618Z,99523.31
2022-11-03T16:06:00.061Z,99510.34
2022-11-03T16:08:26.708Z,99512.09
2022-11-03T16:10:57.571Z,99512.09
2022-11-03T16:13:24.882Z,99511.19
2022-11-03T16:15:51.745Z,99509.56
2022-11-03T16:18:18.289Z,99504.56
2022-11-03T16:20:44.862Z,99495.84
2022-11-03T16:23:11.349Z,99491.44
2022-11-03T16:25:38.073Z,99500.34
2022-11-03T16:28:04.931Z,99490.78
2022-11-03T16:30:31.699Z,99490.78
2022-11-03T16:32:58.102Z,99498.66
2022-11-03T16:35:25.747Z,99499.53
2022-11-03T16:37:52.246Z,99506.63
2022-11-03T16:40:19.892Z,99487.50
2022-11-03T16:42:47.131Z,99483.19
2022-11-03T16:45:19.122Z,99491.09
2022-11-03T16:47:49.865Z,99485.91
2022-11-03T16:50:17.391Z,99475.56
2022-11-03T16:52:47.288Z,99476.50
2022-11-03T16:55:15.409Z,99466.00
2022-11-03T16:57:42.430Z,99471.19
2022-11-03T17:00:12.808Z,99470.31
2022-11-03T17:02:39.527Z,99469.47
2022-11-03T17:05:07.005Z,99460.75
2022-11-03T17:07:33.488Z,99470.31
2022-11-03T17:09:59.939Z,99459.00
2022-11-03T17:12:26.395Z,99451.13
2022-11-03T17:14:55.747Z,99440.63
2022-11-03T17:17:23.936Z,99443.19
2022-11-03T17:19:51.063Z,99424.91
2022-11-03T17:22:17.778Z,99417.81
2022-11-03T17:24:44.238Z,99413.41
2022-11-03T17:27:22.815Z,99410.78
2022-11-03T17:29:55.880Z,99410.03
2022-11-03T17:32:47.211Z,99409.09
2022-11-03T17:35:21.235Z,99402.16
2022-11-03T17:37:49.246Z,99402.84
2022-11-03T17:40:26.018Z,99406.41
2022-11-03T17:42:52.914Z,99390.75
2022-11-03T17:45:21.530Z,99394.22
2022-11-03T17:47:49.568Z,99393.28
2022-11-03T17:50:21.186Z,99384.56
2022-11-03T17:52:49.667Z,99392.38
2022-11-03T17:55:18.015Z,99381.94
2022-11-03T17:57:45.441Z,99382.72
2022-11-03T18:00:17.080Z,99382.72
2022-11-03T18:02:44.402Z,99383.56
2022-11-03T18:05:22.569Z,99377.47
2022-11-03T18:07:50.424Z,99382.69
2022-11-03T18:10:16.935Z,99385.31
2022-11-03T18:13:05.311Z,99385.22
2022-11-03T18:15:35.359Z,99381.69
2022-11-03T18:18:02.693Z,99378.13
2022-11-03T18:20:30.380Z,99380.91
2022-11-03T18:23:12.321Z,99382.72
2022-11-03T18:25:38.731Z,99381.84
2022-11-03T18:28:05.346Z,99382.72
2022-11-03T18:30:31.978Z,99369.69
2022-11-03T18:32:58.553Z,99373.16
2022-11-03T18:35:28.306Z,99384.56
2022-11-03T18:37:56.305Z,99378.41
2022-11-03T18:40:22.806Z,99385.34
2022-11-03T18:42:49.262Z,99373.09
2022-11-03T18:45:17.715Z,99373.03
2022-11-03T18:47:44.720Z,99364.34
2022-11-03T18:50:17.350Z,99366.09
2022-11-03T18:52:47.648Z,99362.59
2022-11-03T18:55:16.046Z,99359.97
2022-11-03T18:57:43.465Z,99359.13
2022-11-03T19:00:19.755Z,99359.94
2022-11-03T19:02:47.443Z,99352.06
2022-11-03T19:05:15.465Z,99349.44
2022-11-03T19:07:44.022Z,99359.00
2022-11-03T19:10:14.731Z,99347.75
2022-11-03T19:12:43.758Z,99349.50
2022-11-03T19:15:19.418Z,99343.34
2022-11-03T19:17:48.518Z,99335.53
2022-11-03T19:20:15.906Z,99335.69
2022-11-03T19:22:42.345Z,99340.94
2022-11-03T19:25:09.103Z,99339.22
2022-11-03T19:27:38.300Z,99340.16
2022-11-03T19:30:05.638Z,99327.03
2022-11-03T19:32:40.593Z,99333.97
2022-11-03T19:35:16.107Z,99335.75
2022-11-03T19:37:43.342Z,99327.16
2022-11-03T19:40:18.751Z,99327.16
2022-11-03T19:42:45.478Z,99333.34
2022-11-03T19:45:17.397Z,99329.09
2022-11-03T19:50:49.560Z,99323.84
2022-11-03T19:53:22.368Z,99316.06
2022-11-03T19:55:49.553Z,99314.44
2022-11-03T19:58:24.754Z,99303.09
2022-11-03T20:00:52.263Z,99296.97
2022-11-03T20:03:19.588Z,99301.31
2022-11-03T20:05:49.506Z,99298.75
2022-11-03T20:08:21.365Z,99303.94
2022-11-03T20:10:48.276Z,99310.16
2022-11-03T20:13:23.368Z,99298.81
2022-11-03T20:15:51.860Z,99294.44
2022-11-03T20:18:20.103Z,99297.13
2022-11-03T20:20:48.323Z,99309.31
2022-11-03T20:23:31.318Z,99300.53
2022-11-03T20:25:58.444Z,99300.41
2022-11-03T20:28:28.319Z,99298.69
2022-11-03T20:30:55.706Z,99305.66
2022-11-03T20:33:24.249Z,99297.78
2022-11-03T20:35:53.468Z,99297.84
2022-11-03T20:38:21.073Z,99302.22
2022-11-03T20:40:51.244Z,99308.34
2022-11-03T20:43:43.022Z,99297.91
2022-11-03T20:46:26.188Z,99301.38
2022-11-03T20:48:55.197Z,99307.53
2022-11-03T20:51:25.244Z,99303.16
2022-11-03T20:53:52.615Z,99297.06
2022-11-03T20:56:23.019Z,99301.31
2022-11-03T20:58:49.860Z,99304.00
2022-11-03T21:01:24.558Z,99303.09
2022-11-03T21:03:59.369Z,99305.72
2022-11-03T21:06:32.086Z,99304.00
2022-11-03T21:08:58.875Z,99308.34
2022-11-03T21:11:28.037Z,99314.47
2022-11-03T21:13:56.341Z,99322.22
2022-11-03T21:16:43.512Z,99324.84
2022-11-03T21:19:43.432Z,99324.84
2022-11-03T21:22:30.751Z,99327.47
2022-11-03T21:24:59.233Z,99328.38
2022-11-03T21:27:25.664Z,99320.53
2022-11-03T21:29:59.263Z,99324.91
2022-11-03T21:32:26.322Z,99324.91
2022-11-03T21:34:52.771Z,99321.44
2022-11-03T21:37:19.462Z,99327.53
2022-11-03T21:39:46.076Z,99330.94
2022-11-03T21:42:53.027Z,99332.72
2022-11-03T21:45:20.275Z,99331.78
2022-11-03T21:48:10.070Z,99330.84
2022-11-03T21:50:38.389Z,99339.66
2022-11-03T21:53:05.020Z,99328.31
2022-11-03T21:55:31.539Z,99330.09
2022-11-03T21:57:58.013Z,99336.09
2022-11-03T22:00:24.439Z,99334.41
2022-11-03T22:02:50.831Z,99328.31
2022-11-03T22:05:17.317Z,99327.31
2022-11-03T22:07:43.757Z,99330.84
2022-11-03T22:10:10.247Z,99332.56
2022-11-03T22:12:36.667Z,99330.84
2022-11-03T22:15:22.561Z,99329.09
2022-11-03T22:17:48.987Z,99346.50
2022-11-03T22:20:34.502Z,99352.59
2022-11-03T22:23:19.753Z,99340.34
2022-11-03T22:26:07.574Z,99347.28
2022-11-03T22:28:33.990Z,99349.97
2022-11-03T22:31:22.307Z,99354.31
2022-11-03T22:34:07.053Z,99350.84
2022-11-03T22:36:33.475Z,99373.72
2022-11-03T22:39:18.482Z,99377.19
2022-11-03T22:42:06.359Z,99395.63
2022-11-03T22:44:51.430Z,99396.72
2022-11-03T22:47:18.860Z,99406.97
2022-11-03T22:49:45.525Z,99421.19
2022-11-03T22:52:12.036Z,99409.00
2022-11-03T22:54:38.479Z,99430.16
2022-11-03T22:57:04.893Z,99428.66
2022-11-03T22:59:31.289Z,99439.41
2022-11-03T23:01:57.806Z,99433.47
2022-11-03T23:04:24.769Z,99437.81
2022-11-03T23:06:51.337Z,99434.47
2022-11-03T23:09:17.737Z,99440.03
2022-11-03T23:11:44.141Z,99427.72
2022-11-03T23:14:11.468Z,99439.03
2022-11-03T23:16:42.910Z,99436.63
2022-11-03T23:19:30.935Z,99437.66
2022-11-03T23:21:57.457Z,99448.19
2022-11-03T23:24:45.490Z,99451.50
2022-11-03T23:27:12.990Z,99463.72
2022-11-03T23:29:39.818Z,99470.91
2022-11-03T23:32:06.515Z,99486.50
2022-11-03T23:34:35.036Z,99493.63
2022-11-03T23:37:02.158Z,99499.91
2022-11-03T23:39:28.608Z,99494.13
2022-11-03T23:41:54.983Z,99504.53
2022-11-03T23:44:21.390Z,99503.63
2022-11-03T23:47:06.286Z,99523.84
2022-11-03T23:49:32.713Z,99524.69
2022-11-03T23:51:59.472Z,99521.25
2022-11-03T23:54:27.152Z,99529.97
2022-11-03T23:57:12.210Z,99529.41
2022-11-03T23:59:38.788Z,99539.00
